Huvudsida
METAR-TAF:

METAR-TAF

Flygplatser :

Ørsta-Volda flygplats. Hovden

Ørsta-Volda, Norge

latitud: 62-11N, longitud: 006-04E, höjd: 7 m

Aktuellt väderrapport

Denna rapport gjordes för 24 minuter sedan, klockan 15:50 UTC
Vind 5 kt varierande vindriktning i byarna ända upp till 25 kt
Temperatur 12°C
Fuktighet 54%
Tryck 1012 hPa
Sikt 10 km eller mer
Brutna moln på en höjd av 4100 ft

METAR: ENOV 141550Z VRB05G25KT 9999 BKN041 12/03 Q1012 RMK WIND 2175FT 17030KT

Tid: 17:14 (16:14 UTC)


TAF: saknas

Aktuella väderrapporter och prognoser från 4000 flygplatser (METAR- och TAF-rapporter).

De tillgängliga stationerna syns som gula och röda prickar på kartan.

För musen över prickarna för att se namnen på stationerna.

Klicka sedan för att få väderrapporter och prognoser.

För att ändra kartan: Klicka på de gröna knapparna med ett svart kors på för att zooma in; den gröna knappen med ett streck på för att zooma ut; eller på de gröna pilarna för angränsande kartor.


METAR-TAF: